Time;durP1;ratioP1;P1;durP2;ratioP2;P2;SDS_P1;SDS_P2;PMS_P1;PMS_P2;Temp;Humidity;BMP_temperature;BMP_pressure;BME280_temperature;BME280_humidity;BME280_pressure;Samples;Min_cycle;Max_cycle;Signal;HPM_P1;HPM_P2
2022/01/14 11:36:50;;;;;;;;;;;;;;;;;;367632;24;1747;-84
2022/01/14 11:37:52;;;;;;;;;;;;;;;;;;2003751;29;1549;-89
2022/01/14 11:38:55;;;;;;;;;;;;;;;;;;1996328;29;1357;-91
2022/01/14 11:40:04;;;;;;;;;;;;;;;;;;1996700;29;1122;-88
2022/01/14 11:41:07;;;;;;;;;;;;;;;;;;2000211;29;1575;-90
2022/01/14 11:42:09;;;;;;;;;;;;;;;;;;1992972;29;1968;-90
2022/01/14 11:43:12;;;;;;;;;;;;;;;;;;1996514;29;1546;-90
2022/01/14 11:44:34;;;;;;;;;;;;;;;;;;2004352;29;1379;-90
2022/01/14 11:45:53;;;;;;;;;;;;;;;;;;1999278;29;1860;-91
2022/01/14 11:47:00;;;;;;;;;;;;;;;;;;2004108;29;1258;-89
2022/01/14 11:48:05;;;;;;;;;;;;;;;;;;2003359;29;1509;-89
2022/01/14 11:49:30;;;;;;;;;;;;;;;;;;1987480;29;1359;-89
2022/01/14 11:50:49;;;;;;;;;;;;;;;;;;1996758;29;1974;-89
2022/01/14 11:51:59;;;;;;;;;;;;;;;;;;1988060;29;1832;-90
2022/01/14 11:53:06;;;;;;;;;;;;;;;;;;1987030;29;1341;-89
2022/01/14 11:54:10;;;;;;;;;;;;;;;;;;1980791;29;1357;-90
2022/01/14 11:55:35;;;;;;;;;;;;;;;;;;1988005;29;1854;-88
2022/01/14 11:56:50;;;;;;;;;;;;;;;;;;1996272;29;1530;-90
2022/01/14 11:57:53;;;;;;;;;;;;;;;;;;1990531;29;1209;-89
2022/01/14 11:58:55;;;;;;;;;;;;;;;;;;1981527;29;1212;-89
2022/01/14 11:59:57;;;;;;;;;;;;;;;;;;1981407;29;1296;-88
2022/01/14 12:00:58;;;;;;;;;;;;;;;;;;1996725;29;745;-89
2022/01/14 12:02:00;;;;;;;;;;;;;;;;;;1989276;29;1376;-89
2022/01/14 12:03:25;;;;;;;;;;;;;;;;;;1981714;29;1303;-90
2022/01/14 12:04:51;;;;;;;;;;;;;;;;;;1984730;29;1075;-89
2022/01/14 12:05:55;;;;;;;;;;;;;;;;;;1989142;29;1794;-90
2022/01/14 12:06:59;;;;;;;;;;;;;;;;;;1983978;29;2186;-90
2022/01/14 12:08:22;;;;;;;;;;;;;;;;;;1989735;29;1269;-89
2022/01/14 12:09:33;;;;;;;;;;;;;;;;;;1996389;29;900;-90
2022/01/14 12:10:36;;;;;;;;;;;;;;;;;;1996593;29;1912;-90
2022/01/14 12:11:41;;;;;;;;;;;;;;;;;;1992525;29;1852;-90
2022/01/14 12:12:42;;;;;;;;;;;;;;;;;;1996873;29;1883;-89
2022/01/14 12:13:56;;;;;;;;;;;;;;;;;;2004029;29;1239;-89
2022/01/14 12:14:59;;;;;;;;;;;;;;;;;;2003654;29;1388;-89
2022/01/14 12:16:04;;;;;;;;;;;;;;;;;;2003806;29;1267;-89
2022/01/14 12:17:13;;;;;;;;;;;;;;;;;;1996691;29;1492;-90
2022/01/14 12:18:14;;;;;;;;;;;;;;;;;;1995973;29;1927;-90
2022/01/14 12:19:28;;;;;;;;;;;;;;;;;;1989073;29;1190;-89
2022/01/14 12:20:29;;;;;;;;;;;;;;;;;;1990137;29;1781;-90
2022/01/14 12:21:51;;;;;;;;;;;;;;;;;;1970892;30;1922;-90
2022/01/14 12:23:07;;;;;;;;;;;;;;;;;;1979545;29;847;-89
2022/01/14 12:24:34;;;;;;;;;;;;;;;;;;1990262;29;1915;-90
2022/01/14 12:25:40;;;;;;;;;;;;;;;;;;1992202;29;1385;-90
2022/01/14 12:26:44;;;;;;;;;;;;;;;;;;1996885;29;1096;-90
2022/01/14 12:27:47;;;;;;;;;;;;;;;;;;1983910;29;1921;-90
2022/01/14 12:29:11;;;;;;;;;;;;;;;;;;1981931;29;1254;-89
2022/01/14 12:30:24;;;;;;;;;;;;;;;;;;1986646;29;1915;-90
2022/01/14 12:31:25;;;;;;;;;;;;;;;;;;1981491;30;1516;-90
2022/01/14 12:32:32;;;;;;;;;;;;;;;;;;1974093;30;1210;-90
2022/01/14 12:33:48;;;;;;;;;;;;;;;;;;1982550;29;1847;-89
2022/01/14 12:34:59;;;;;;;;;;;;;;;;;;1983491;29;1845;-90
2022/01/14 12:36:08;;;;;;;;;;;;;;;;;;1989710;29;957;-90
2022/01/14 12:37:15;;;;;;;;;;;;;;;;;;1983914;29;1222;-89
2022/01/14 12:38:23;;;;;;;;;;;;;;;;;;1988989;29;951;-90
2022/01/14 12:39:24;;;;;;;;;;;;;;;;;;1991200;29;1837;-90
2022/01/14 12:40:29;;;;;;;;;;;;;;;;;;1996212;29;1357;-90
2022/01/14 12:41:32;;;;;;;;;;;;;;;;;;1996535;29;1202;-90
2022/01/14 12:42:34;;;;;;;;;;;;;;;;;;1992724;29;1884;-88
2022/01/14 12:43:35;;;;;;;;;;;;;;;;;;1988951;29;1188;-88
2022/01/14 12:44:38;;;;;;;;;;;;;;;;;;1989154;29;1249;-88
2022/01/14 12:45:52;;;;;;;;;;;;;;;;;;1993594;29;1928;-88
2022/01/14 12:47:01;;;;;;;;;;;;;;;;;;1996901;29;1241;-88
2022/01/14 12:48:39;;;;;;;;;;;;;;;;;;1995683;29;1906;-90
2022/01/14 12:49:46;;;;;;;;;;;;;;;;;;1996915;29;1780;-89
2022/01/14 12:50:52;;;;;;;;;;;;;;;;;;1997097;29;1923;-90
2022/01/14 12:52:01;;;;;;;;;;;;;;;;;;1996620;29;1252;-88
2022/01/14 12:53:07;;;;;;;;;;;;;;;;;;1997187;29;1233;-88
2022/01/14 12:54:11;;;;;;;;;;;;;;;;;;1988096;29;2095;-88
2022/01/14 12:55:15;;;;;;;;;;;;;;;;;;1982632;29;1004;-88
2022/01/14 12:56:22;;;;;;;;;;;;;;;;;;1989331;29;1369;-88
2022/01/14 12:57:25;;;;;;;;;;;;;;;;;;1989670;29;1848;-88
2022/01/14 12:58:27;;;;;;;;;;;;;;;;;;1988815;29;1348;-88
2022/01/14 12:59:30;;;;;;;;;;;;;;;;;;1998589;29;1809;-88
2022/01/14 13:00:34;;;;;;;;;;;;;;;;;;1994939;29;1916;-88
2022/01/14 13:01:40;;;;;;;;;;;;;;;;;;1996936;29;1423;-88
2022/01/14 13:02:44;;;;;;;;;;;;;;;;;;2003481;29;849;-88
2022/01/14 13:03:46;;;;;;;;;;;;;;;;;;1991711;29;1876;-88
2022/01/14 13:04:59;;;;;;;;;;;;;;;;;;1995668;29;1635;-88
2022/01/14 13:05:59;;;;;;;;;;;;;;;;;;1988746;29;1271;-88
2022/01/14 13:07:02;;;;;;;;;;;;;;;;;;1981257;29;1980;-87
2022/01/14 13:08:03;;;;;;;;;;;;;;;;;;1996491;29;1188;-88
2022/01/14 13:09:10;;;;;;;;;;;;;;;;;;2003460;29;1931;-88
2022/01/14 13:10:16;;;;;;;;;;;;;;;;;;1989299;29;1243;-90
2022/01/14 13:11:18;;;;;;;;;;;;;;;;;;1996248;29;1904;-90
2022/01/14 13:12:21;;;;;;;;;;;;;;;;;;1992626;29;1824;-90
2022/01/14 13:13:26;;;;;;;;;;;;;;;;;;1989230;29;1138;-89
2022/01/14 13:14:29;;;;;;;;;;;;;;;;;;1998377;29;1573;-91
2022/01/14 13:15:35;;;;;;;;;;;;;;;;;;1996395;29;1821;-91
2022/01/14 13:16:48;;;;;;;;;;;;;;;;;;1989288;29;1455;-88
2022/01/14 13:18:03;;;;;;;;;;;;;;;;;;1996930;29;1179;-87
2022/01/14 13:19:21;;;;;;;;;;;;;;;;;;1988418;29;1772;-91
2022/01/14 13:20:39;;;;;;;;;;;;;;;;;;1993490;29;1332;-88
2022/01/14 13:21:42;;;;;;;;;;;;;;;;;;1993092;29;1868;-89
2022/01/14 13:22:53;;;;;;;;;;;;;;;;;;2003608;29;1601;-88
2022/01/14 13:24:18;;;;;;;;;;;;;;;;;;1990978;29;1876;-87
2022/01/14 13:25:24;;;;;;;;;;;;;;;;;;1996820;29;1414;-88
2022/01/14 13:26:26;;;;;;;;;;;;;;;;;;1995867;29;1200;-87
2022/01/14 13:27:29;;;;;;;;;;;;;;;;;;1987551;29;1846;-87
2022/01/14 13:28:35;;;;;;;;;;;;;;;;;;1988033;29;1256;-87
2022/01/14 13:29:38;;;;;;;;;;;;;;;;;;1996081;29;1346;-87
2022/01/14 13:30:54;;;;;;;;;;;;;;;;;;1992422;29;1974;-88
2022/01/14 13:31:55;;;;;;;;;;;;;;;;;;1991403;29;1321;-87
2022/01/14 13:33:11;;;;;;;;;;;;;;;;;;1998964;29;931;-88
2022/01/14 13:35:59;;;;;;;;;;;;;;;;;;1999993;29;1275;-88
2022/01/14 13:37:04;;;;;;;;;;;;;;;;;;1993023;29;1220;-87
2022/01/14 13:38:33;;;;;;;;;;;;;;;;;;1999252;29;1313;-86
2022/01/14 13:39:35;;;;;;;;;;;;;;;;;;1996158;29;1349;-86
2022/01/14 13:40:43;;;;;;;;;;;;;;;;;;1988211;29;1296;-87
2022/01/14 13:41:45;;;;;;;;;;;;;;;;;;1988931;29;1346;-88
2022/01/14 13:42:48;;;;;;;;;;;;;;;;;;1997588;29;1380;-87
2022/01/14 13:43:53;;;;;;;;;;;;;;;;;;1997690;29;1625;-87
2022/01/14 13:45:07;;;;;;;;;;;;;;;;;;1996676;29;1455;-88
2022/01/14 13:46:19;;;;;;;;;;;;;;;;;;1996757;29;1370;-89
2022/01/14 13:47:21;;;;;;;;;;;;;;;;;;2003927;29;1296;-88
2022/01/14 13:48:26;;;;;;;;;;;;;;;;;;2004444;29;1654;-88
2022/01/14 13:49:37;;;;;;;;;;;;;;;;;;2004014;29;1254;-88
2022/01/14 13:50:45;;;;;;;;;;;;;;;;;;1996289;29;1514;-88
2022/01/14 13:51:47;;;;;;;;;;;;;;;;;;1996084;29;1701;-88
2022/01/14 13:53:01;;;;;;;;;;;;;;;;;;2002329;29;1380;-89
2022/01/14 13:54:11;;;;;;;;;;;;;;;;;;1999882;29;1658;-88
2022/01/14 13:55:30;;;;;;;;;;;;;;;;;;1989479;29;1336;-88
2022/01/14 13:56:33;;;;;;;;;;;;;;;;;;1994680;29;1166;-88
2022/01/14 13:57:36;;;;;;;;;;;;;;;;;;2003061;29;1800;-87
2022/01/14 13:58:38;;;;;;;;;;;;;;;;;;2001290;29;1348;-88
2022/01/14 13:59:40;;;;;;;;;;;;;;;;;;2003147;29;1387;-87
2022/01/14 14:00:45;;;;;;;;;;;;;;;;;;1997237;29;1662;-89
2022/01/14 14:03:36;;;;;;;;;;;;;;;;;;1988880;29;1721;-89
2022/01/14 14:04:48;;;;;;;;;;;;;;;;;;2001099;29;1516;-90
2022/01/14 14:06:05;;;;;;;;;;;;;;;;;;1997567;29;1416;-90
2022/01/14 14:07:11;;;;;;;;;;;;;;;;;;1996812;29;1373;-90
2022/01/14 14:08:21;;;;;;;;;;;;;;;;;;2004792;29;1269;-88
2022/01/14 14:09:34;;;;;;;;;;;;;;;;;;2006103;29;1797;-88
2022/01/14 14:11:48;;;;;;;;;;;;;;;;;;2001734;29;1379;-87
2022/01/14 14:16:32;;;;;;;;;;;;;;;;;;1995300;29;1443;-88
2022/01/14 14:18:00;;;;;;;;;;;;;;;;;;1995051;29;1423;-88
2022/01/14 14:19:07;;;;;;;;;;;;;;;;;;1998588;29;1349;-86
2022/01/14 14:20:23;;;;;;;;;;;;;;;;;;1987547;29;1478;-87
2022/01/14 14:21:33;;;;;;;;;;;;;;;;;;1995820;29;1504;-87
2022/01/14 14:22:52;;;;;;;;;;;;;;;;;;1995798;29;1308;-87
2022/01/14 14:23:57;;;;;;;;;;;;;;;;;;1996312;29;1598;-87
2022/01/14 14:25:06;;;;;;;;;;;;;;;;;;2000897;29;1942;-87
2022/01/14 14:26:29;;;;;;;;;;;;;;;;;;2000424;29;1342;-87
2022/01/14 14:27:57;;;;;;;;;;;;;;;;;;1995627;29;1642;-87
2022/01/14 14:29:04;;;;;;;;;;;;;;;;;;1997064;29;1740;-87
2022/01/14 14:30:11;;;;;;;;;;;;;;;;;;1995912;29;1659;-88
2022/01/14 14:31:31;;;;;;;;;;;;;;;;;;1988679;29;1915;-88
2022/01/14 14:32:42;;;;;;;;;;;;;;;;;;2002584;29;1494;-88
2022/01/14 14:33:51;;;;;;;;;;;;;;;;;;1991322;29;1900;-88
2022/01/14 14:34:57;;;;;;;;;;;;;;;;;;1989097;29;1196;-87
2022/01/14 14:35:59;;;;;;;;;;;;;;;;;;1998644;29;1326;-87
2022/01/14 14:37:09;;;;;;;;;;;;;;;;;;1993880;29;2065;-89
2022/01/14 14:38:18;;;;;;;;;;;;;;;;;;1983180;29;1343;-88
2022/01/14 14:39:35;;;;;;;;;;;;;;;;;;1997412;29;1726;-90
2022/01/14 14:40:51;;;;;;;;;;;;;;;;;;1996118;29;1523;-89
2022/01/14 14:42:23;;;;;;;;;;;;;;;;;;1994878;29;1345;-89
2022/01/14 14:43:48;;;;;;;;;;;;;;;;;;2003531;29;1669;-86
2022/01/14 14:44:55;;;;;;;;;;;;;;;;;;2000340;29;1345;-87
2022/01/14 14:46:03;;;;;;;;;;;;;;;;;;2004240;29;1863;-88
2022/01/14 14:47:09;;;;;;;;;;;;;;;;;;1995589;29;1341;-88
2022/01/14 14:48:12;;;;;;;;;;;;;;;;;;1992481;29;1809;-90
2022/01/14 14:49:15;;;;;;;;;;;;;;;;;;1992387;29;1449;-88
2022/01/14 14:50:20;;;;;;;;;;;;;;;;;;1994410;29;1713;-87
2022/01/14 14:51:22;;;;;;;;;;;;;;;;;;1996165;29;1920;-87
2022/01/14 14:52:25;;;;;;;;;;;;;;;;;;1996626;29;1636;-87
2022/01/14 14:53:32;;;;;;;;;;;;;;;;;;1995998;29;1712;-87
2022/01/14 14:54:34;;;;;;;;;;;;;;;;;;1989359;29;1467;-87
2022/01/14 14:55:46;;;;;;;;;;;;;;;;;;1995741;29;1455;-87
2022/01/14 14:56:46;;;;;;;;;;;;;;;;;;2000781;29;1830;-87
2022/01/14 14:57:49;;;;;;;;;;;;;;;;;;2002583;29;1942;-88
2022/01/14 14:59:09;;;;;;;;;;;;;;;;;;1993711;29;1321;-87
2022/01/14 15:01:48;;;;;;;;;;;;;;;;;;1999638;29;1505;-88
2022/01/14 15:03:06;;;;;;;;;;;;;;;;;;2003778;29;1406;-87
2022/01/14 15:04:08;;;;;;;;;;;;;;;;;;1995005;29;1372;-87
2022/01/14 15:05:31;;;;;;;;;;;;;;;;;;1987419;29;1424;-88
2022/01/14 15:06:37;;;;;;;;;;;;;;;;;;1988992;29;1413;-90
2022/01/14 15:07:49;;;;;;;;;;;;;;;;;;1995822;29;1401;-89
2022/01/14 15:08:59;;;;;;;;;;;;;;;;;;1992669;29;1413;-91
2022/01/14 15:10:05;;;;;;;;;;;;;;;;;;1990543;29;1312;-90
2022/01/14 15:11:08;;;;;;;;;;;;;;;;;;1990942;29;1403;-90
2022/01/14 15:12:38;;;;;;;;;;;;;;;;;;1997496;29;1974;-90
2022/01/14 15:13:42;;;;;;;;;;;;;;;;;;1994934;29;1361;-88
2022/01/14 15:14:47;;;;;;;;;;;;;;;;;;1997203;29;1473;-89
2022/01/14 15:21:33;;;;;;;;;;;;;;;;;;2007325;29;1251;-90
2022/01/14 15:22:50;;;;;;;;;;;;;;;;;;2006304;29;1398;-91
2022/01/14 15:28:26;;;;;;;;;;;;;;;;;;1998433;29;686;-91
2022/01/14 15:29:46;;;;;;;;;;;;;;;;;;2000898;29;814;-93
2022/01/14 15:35:01;;;;;;;;;;;;;;;;;;1999425;29;651;-83
2022/01/14 15:36:06;;;;;;;;;;;;;;;;;;1997103;29;1372;-84
2022/01/14 15:37:10;;;;;;;;;;;;;;;;;;1989896;29;1347;-84
2022/01/14 15:38:11;;;;;;;;;;;;;;;;;;1989635;29;1835;-84
2022/01/14 15:39:16;;;;;;;;;;;;;;;;;;1997083;29;947;-86
2022/01/14 15:40:23;;;;;;;;;;;;;;;;;;1998079;29;831;-83
2022/01/14 15:41:29;;;;;;;;;;;;;;;;;;2004742;29;1278;-86
2022/01/14 15:42:31;;;;;;;;;;;;;;;;;;2004566;29;1285;-85
2022/01/14 15:43:34;;;;;;;;;;;;;;;;;;1990188;29;1261;-85
2022/01/14 15:44:41;;;;;;;;;;;;;;;;;;1996742;29;1159;-83
2022/01/14 15:45:46;;;;;;;;;;;;;;;;;;1997752;29;939;-83
2022/01/14 15:46:47;;;;;;;;;;;;;;;;;;2004466;29;1235;-84
2022/01/14 15:47:50;;;;;;;;;;;;;;;;;;1996868;29;1252;-85
2022/01/14 15:48:54;;;;;;;;;;;;;;;;;;1989802;29;991;-85
2022/01/14 15:49:56;;;;;;;;;;;;;;;;;;1990072;29;1259;-86
2022/01/14 15:50:59;;;;;;;;;;;;;;;;;;1989602;29;1758;-84
2022/01/14 15:52:05;;;;;;;;;;;;;;;;;;1989651;29;1911;-85
2022/01/14 15:53:08;;;;;;;;;;;;;;;;;;1990284;29;1242;-85
2022/01/14 15:54:14;;;;;;;;;;;;;;;;;;1997193;29;853;-85
2022/01/14 15:55:17;;;;;;;;;;;;;;;;;;2004756;29;1235;-84
2022/01/14 15:56:19;;;;;;;;;;;;;;;;;;2004813;29;1227;-84
2022/01/14 15:57:20;;;;;;;;;;;;;;;;;;1982149;29;1390;-84
2022/01/14 15:58:22;;;;;;;;;;;;;;;;;;1982256;29;1324;-84
2022/01/14 16:17:42;;;;;;;;;;;;;;;;;;1995183;29;1698;-87
2022/01/14 16:19:40;;;;;;;;;;;;;;;;;;1994805;29;1575;-88
2022/01/14 16:25:31;;;;;;;;;;;;;;;;;;1959379;30;1998;-86
2022/01/14 16:27:01;;;;;;;;;;;;;;;;;;1971398;30;1822;-86
2022/01/14 16:31:03;;;;;;;;;;;;;;;;;;1972688;30;1756;-87
2022/01/14 16:40:04;;;;;;;;;;;;;;;;;;1968872;30;1857;-86
2022/01/14 16:44:05;;;;;;;;;;;;;;;;;;1936576;30;1713;-86
2022/01/14 17:41:30;;;;;;;;;;;;;;;;;;1937454;30;1515;-86
2022/01/14 18:48:58;;;;;;;;;;;;;;;;;;;;;
2022/01/14 18:53:19;;;;;;;;;;;;;;;;;;;;;
2022/01/14 19:34:28;;;;;;;;;;;;;;;;;;1939008;30;1212;-87
2022/01/14 19:40:31;;;;;;;;;;;;;;;;;;1924418;30;1832;-86
2022/01/14 19:44:22;;;;;;;;;;;;;;;;;;1948452;30;1260;-86
2022/01/14 20:12:16;;;;;;;;;;;;;;;;;;1915252;31;1503;-87
2022/01/14 20:13:48;;;;;;;;;;;;;;;;;;1915975;30;2022;-87
2022/01/14 20:42:31;;;;;;;;;;;;;;;;;;1906885;31;1778;-87
2022/01/14 20:46:46;;;;;;;;;;;;;;;;;;;;;
2022/01/14 22:17:39;;;;;;;;;;;;;;;;;;;;;
2022/01/14 22:30:12;;;;;;;;;;;;;;;;;;1875220;31;1788;-87
2022/01/14 22:44:54;;;;;;;;;;;;;;;;;;;;;
2022/01/14 22:53:01;;;;;;;;;;;;;;;;;;1908749;30;1876;-86
2022/01/14 23:01:14;;;;;;;;;;;;;;;;;;1915541;30;1744;-86
